Dades meteomassalio
Diari Summary for Juliol 2, 2017 Units:  English    Metric   Both
« Previous Day
Next Day »
Diari Semanal Mensual Anual Personalitzat
  Maxima: Minima: Mijana:
Temperatura: TemperatureC °F 13.8 °F 20.2 °F
Rosada: DewpointC °F 7.2 °F 8.9 °F
Humitat: Humidity % 33 % 50 %
Velocitat del vent: WindSpeedKMH mph 0.0 mph 20.8 mph
Racha vent: WindSpeedGustKMH mph - -
Vent:- - WNW
Pressio: PressurehPa in 1020.5 in -
Pluja: 0.0 in    
Historical Graphs
 
 
Tabular Data for Juliol 2, 2017
Time Temperature Dew Point Pressure Wind Wind Speed Wind Gust Humidity Rainfall Rate (Hourly) solar Conditions
TemperatureC °F DewpointC °F PressurehPa in Calm     Humidity % HourlyPrecipMM in SolarRadiationWatts/m^2 W/m2 Conditions
00:03 16.2 °F 9.2 °F 1024.9 in West 18.5 mph 18.5 mph 63 % 0.0 in 0.0 W/m2 CLR
00:08 16.2 °F 9.1 °F 1024.9 in West 18.5 mph 18.5 mph 63 % 0.0 in 0.0 W/m2 CLR
00:13 16.1 °F 9.0 °F 1024.9 in WNW 13.0 mph 13.0 mph 63 % 0.0 in 0.0 W/m2 CLR
00:18 16.0 °F 8.9 °F 1024.9 in West 24.1 mph 24.1 mph 63 % 0.0 in 0.0 W/m2 CLR
00:23 15.9 °F 8.9 °F 1024.9 in WNW 20.4 mph 20.4 mph 63 % 0.0 in 0.0 W/m2 CLR
00:28 15.9 °F 8.8 °F 1024.9 in West 18.5 mph 18.5 mph 63 % 0.0 in 0.0 W/m2 CLR
00:33 15.8 °F 8.8 °F 1024.9 in West 20.4 mph 20.4 mph 63 % 0.0 in 0.0 W/m2 CLR
00:38 15.7 °F 8.7 °F 1024.9 in WNW 20.4 mph 20.4 mph 63 % 0.0 in 0.0 W/m2 CLR
00:43 15.6 °F 8.8 °F 1024.9 in West 22.5 mph 22.5 mph 64 % 0.0 in 0.0 W/m2 CLR
00:48 15.6 °F 8.6 °F 1025.3 in West 20.4 mph 20.4 mph 63 % 0.0 in 0.0 W/m2 CLR
00:53 15.6 °F 8.6 °F 1024.9 in WNW 25.9 mph 25.9 mph 63 % 0.0 in 0.0 W/m2 CLR
00:58 15.5 °F 8.5 °F 1025.3 in NW 18.5 mph 18.5 mph 63 % 0.0 in 0.0 W/m2 CLR
01:03 15.4 °F 8.6 °F 1025.3 in West 22.2 mph 22.2 mph 64 % 0.0 in 0.0 W/m2 CLR
01:08 15.3 °F 8.6 °F 1024.9 in West 35.2 mph 35.2 mph 64 % 0.0 in 0.0 W/m2 CLR
01:13 15.3 °F 8.6 °F 1024.9 in NW 22.2 mph 22.2 mph 64 % 0.0 in 0.0 W/m2 CLR
01:18 15.3 °F 8.6 °F 1024.9 in WNW 20.4 mph 20.4 mph 64 % 0.0 in 0.0 W/m2 CLR
01:23 15.3 °F 8.6 °F 1024.9 in West 24.1 mph 24.1 mph 64 % 0.0 in 0.0 W/m2 CLR
01:28 15.3 °F 8.5 °F 1025.3 in WNW 24.1 mph 24.1 mph 64 % 0.0 in 0.0 W/m2 CLR
01:33 15.2 °F 8.4 °F 1025.3 in West 22.2 mph 22.2 mph 64 % 0.0 in 0.0 W/m2 CLR
01:38 15.2 °F 8.4 °F 1025.3 in West 25.9 mph 25.9 mph 64 % 0.0 in 0.0 W/m2 CLR
01:43 15.2 °F 8.4 °F 1025.3 in West 25.9 mph 25.9 mph 64 % 0.0 in 0.0 W/m2 CLR
01:48 15.2 °F 8.2 °F 1025.3 in West 24.1 mph 24.1 mph 63 % 0.0 in 0.0 W/m2 CLR
01:53 15.2 °F 8.2 °F 1024.9 in WNW 37.0 mph 37.0 mph 63 % 0.0 in 0.0 W/m2 CLR
01:58 15.1 °F 8.1 °F 1024.9 in West 24.1 mph 24.1 mph 63 % 0.0 in 0.0 W/m2 CLR
02:03 15.1 °F 8.1 °F 1024.9 in WNW 25.9 mph 25.9 mph 63 % 0.0 in 0.0 W/m2 CLR
02:08 15.0 °F 8.0 °F 1024.9 in West 22.2 mph 22.2 mph 63 % 0.0 in 0.0 W/m2 CLR
02:13 14.9 °F 7.9 °F 1024.9 in West 25.9 mph 25.9 mph 63 % 0.0 in 0.0 W/m2 CLR
02:18 14.9 °F 7.9 °F 1024.9 in West 31.5 mph 31.5 mph 63 % 0.0 in 0.0 W/m2 CLR
02:23 14.9 °F 7.9 °F 1024.9 in WNW 31.5 mph 31.5 mph 63 % 0.0 in 0.0 W/m2 CLR
02:28 14.9 °F 7.9 °F 1024.9 in WNW 27.4 mph 27.4 mph 63 % 0.0 in 0.0 W/m2 CLR
02:33 14.9 °F 7.9 °F 1024.9 in West 37.0 mph 37.0 mph 63 % 0.0 in 0.0 W/m2 CLR
02:38 14.8 °F 7.8 °F 1024.9 in WNW 30.6 mph 30.6 mph 63 % 0.0 in 0.0 W/m2 CLR
02:43 14.8 °F 7.8 °F 1024.9 in West 33.3 mph 33.3 mph 63 % 0.0 in 0.0 W/m2 CLR
02:48 14.8 °F 7.8 °F 1024.9 in West 33.3 mph 33.3 mph 63 % 0.0 in 0.0 W/m2 CLR
02:53 14.8 °F 7.8 °F 1024.9 in WSW 35.2 mph 35.2 mph 63 % 0.0 in 0.0 W/m2 CLR
02:58 14.8 °F 7.8 °F 1024.6 in WNW 31.5 mph 31.5 mph 63 % 0.0 in 0.0 W/m2 CLR
03:03 14.8 °F 7.8 °F 1024.6 in West 40.7 mph 40.7 mph 63 % 0.0 in 0.0 W/m2 CLR
03:08 14.8 °F 7.8 °F 1024.6 in West 42.6 mph 42.6 mph 63 % 0.0 in 0.0 W/m2 CLR
03:13 14.8 °F 7.8 °F 1024.6 in West 37.0 mph 37.0 mph 63 % 0.0 in 0.0 W/m2 CLR
03:14 14.8 °F 8.1 °F 1024.6 in West 37.0 mph 37.0 mph 64 % 0.0 in 0.0 W/m2 CLR
03:19 14.7 °F 8.0 °F 1024.3 in WNW 33.8 mph 33.8 mph 64 % 0.0 in 0.0 W/m2 CLR
03:24 14.7 °F 8.0 °F 1024.3 in WSW 33.8 mph 33.8 mph 64 % 0.0 in 0.0 W/m2 CLR
03:29 14.7 °F 8.0 °F 1024.3 in WNW 40.7 mph 40.7 mph 64 % 0.0 in 0.0 W/m2 CLR
03:34 14.7 °F 7.9 °F 1024.3 in West 38.9 mph 38.9 mph 64 % 0.0 in 0.0 W/m2 CLR
03:39 14.6 °F 7.9 °F 1024.3 in NW 46.3 mph 46.3 mph 64 % 0.0 in 0.0 W/m2 CLR
03:44 14.7 °F 7.9 °F 1024.3 in WNW 37.0 mph 37.0 mph 64 % 0.0 in 0.0 W/m2 CLR
03:49 14.6 °F 7.9 °F 1024.6 in WNW 38.9 mph 38.9 mph 64 % 0.0 in 0.0 W/m2 CLR
03:54 14.6 °F 8.1 °F 1024.3 in West 37.0 mph 37.0 mph 65 % 0.0 in 0.0 W/m2 CLR
03:59 14.6 °F 7.9 °F 1024.3 in WNW 29.6 mph 29.6 mph 64 % 0.0 in 0.0 W/m2 CLR
04:04 14.6 °F 8.1 °F 1024.6 in West 29.6 mph 29.6 mph 65 % 0.0 in 0.0 W/m2 CLR
04:05 14.6 °F 7.8 °F 1024.6 in West 31.5 mph 31.5 mph 64 % 0.0 in 0.0 W/m2 CLR
04:10 14.5 °F 7.8 °F 1024.6 in WNW 27.8 mph 27.8 mph 64 % 0.0 in 0.0 W/m2 CLR
04:15 14.5 °F 8.0 °F 1024.6 in WNW 27.8 mph 27.8 mph 65 % 0.0 in 0.0 W/m2 CLR
04:20 14.5 °F 7.8 °F 1024.6 in WNW 24.1 mph 24.1 mph 64 % 0.0 in 0.0 W/m2 CLR
04:25 14.5 °F 7.8 °F 1024.6 in WNW 24.1 mph 24.1 mph 64 % 0.0 in 0.0 W/m2 CLR
04:30 14.5 °F 7.8 °F 1024.6 in West 30.6 mph 30.6 mph 64 % 0.0 in 0.0 W/m2 CLR
04:35 14.4 °F 7.7 °F 1024.3 in WNW 27.8 mph 27.8 mph 64 % 0.0 in 0.0 W/m2 CLR
04:40 14.4 °F 7.9 °F 1024.3 in WNW 29.6 mph 29.6 mph 65 % 0.0 in 0.0 W/m2 CLR
04:45 14.3 °F 7.8 °F 1024.3 in WNW 27.8 mph 27.8 mph 65 % 0.0 in 0.0 W/m2 CLR
04:50 14.3 °F 7.8 °F 1024.3 in WNW 27.8 mph 27.8 mph 65 % 0.0 in 0.0 W/m2 CLR
04:55 14.3 °F 7.8 °F 1024.6 in West 27.8 mph 27.8 mph 65 % 0.0 in 0.0 W/m2 CLR
05:00 14.2 °F 7.7 °F 1024.6 in West 24.1 mph 24.1 mph 65 % 0.0 in 0.0 W/m2 CLR
05:05 14.2 °F 7.9 °F 1024.6 in West 27.8 mph 27.8 mph 66 % 0.0 in 0.0 W/m2 CLR
05:10 14.1 °F 7.6 °F 1024.6 in West 19.3 mph 19.3 mph 65 % 0.0 in 0.0 W/m2 CLR
05:15 14.1 °F 7.8 °F 1024.6 in West 18.5 mph 18.5 mph 66 % 0.0 in 0.0 W/m2 CLR
05:20 14.1 °F 7.8 °F 1024.6 in West 29.6 mph 29.6 mph 66 % 0.0 in 0.0 W/m2 CLR
05:25 14.0 °F 7.7 °F 1024.6 in West 25.9 mph 25.9 mph 66 % 0.0 in 0.0 W/m2 CLR
05:30 14.0 °F 7.7 °F 1024.6 in West 18.5 mph 18.5 mph 66 % 0.0 in 0.0 W/m2 CLR
05:35 13.9 °F 7.7 °F 1024.6 in WNW 24.1 mph 24.1 mph 66 % 0.0 in 0.0 W/m2 CLR
05:40 13.9 °F 7.6 °F 1024.6 in West 25.7 mph 25.7 mph 66 % 0.0 in 0.0 W/m2 CLR
05:45 13.9 °F 7.6 °F 1024.6 in WNW 24.1 mph 24.1 mph 66 % 0.0 in 0.0 W/m2 CLR
05:50 13.9 °F 7.6 °F 1024.3 in West 31.5 mph 31.5 mph 66 % 0.0 in 0.0 W/m2 CLR
05:55 13.9 °F 7.6 °F 1024.6 in WNW 27.8 mph 27.8 mph 66 % 0.0 in 0.0 W/m2 CLR
06:00 13.8 °F 7.6 °F 1024.6 in West 22.2 mph 22.2 mph 66 % 0.0 in 0.0 W/m2 CLR
06:05 13.9 °F 7.6 °F 1024.6 in West 22.2 mph 22.2 mph 66 % 0.0 in 0.0 W/m2 CLR
06:10 13.9 °F 7.6 °F 1024.6 in West 20.4 mph 20.4 mph 66 % 0.0 in 0.0 W/m2 CLR
06:15 13.9 °F 7.4 °F 1024.6 in WSW 25.9 mph 25.9 mph 65 % 0.0 in 0.0 W/m2 CLR
06:20 14.0 °F 7.5 °F 1024.6 in WNW 25.9 mph 25.9 mph 65 % 0.0 in 0.0 W/m2 CLR
06:25 13.9 °F 7.4 °F 1024.6 in WNW 22.2 mph 22.2 mph 65 % 0.0 in 0.0 W/m2 OVC
06:26 13.9 °F 7.4 °F 1024.6 in WNW 20.4 mph 20.4 mph 65 % 0.0 in 0.0 W/m2 OVC
06:31 13.9 °F 7.4 °F 1024.6 in WNW 20.4 mph 20.4 mph 65 % 0.0 in 0.0 W/m2 OVC
06:36 13.9 °F 7.4 °F 1024.9 in WNW 19.3 mph 19.3 mph 65 % 0.0 in 5.0 W/m2 OVC
06:41 13.9 °F 7.4 °F 1024.9 in WSW 18.5 mph 18.5 mph 65 % 0.0 in 9.0 W/m2 BKN
06:46 13.8 °F 7.4 °F 1024.9 in West 22.2 mph 22.2 mph 65 % 0.0 in 11.0 W/m2 BKN
06:51 13.8 °F 7.3 °F 1024.9 in WSW 16.7 mph 16.7 mph 65 % 0.0 in 12.0 W/m2 BKN
06:56 13.8 °F 7.4 °F 1024.9 in West 18.5 mph 18.5 mph 65 % 0.0 in 16.0 W/m2 BKN
07:01 13.8 °F 7.4 °F 1024.9 in WSW 17.7 mph 17.7 mph 65 % 0.0 in 16.0 W/m2 BKN
07:06 13.8 °F 7.4 °F 1024.9 in West 19.3 mph 19.3 mph 65 % 0.0 in 21.0 W/m2 BKN
07:11 13.9 °F 7.4 °F 1024.9 in WSW 17.7 mph 17.7 mph 65 % 0.0 in 32.0 W/m2 BKN
07:16 13.9 °F 7.2 °F 1024.9 in West 22.2 mph 22.2 mph 64 % 0.0 in 42.0 W/m2 BKN
07:21 14.0 °F 7.3 °F 1024.9 in West 18.5 mph 18.5 mph 64 % 0.0 in 53.0 W/m2 SCT
07:26 14.1 °F 7.3 °F 1024.9 in West 16.1 mph 16.1 mph 64 % 0.0 in 63.0 W/m2 SCT
07:31 14.2 °F 7.4 °F 1024.9 in West 22.2 mph 22.2 mph 64 % 0.0 in 77.0 W/m2 FEW
07:36 14.2 °F 7.3 °F 1024.9 in West 18.5 mph 18.5 mph 63 % 0.0 in 90.0 W/m2 FEW
07:41 14.4 °F 7.4 °F 1024.9 in WNW 22.2 mph 22.2 mph 63 % 0.0 in 105.0 W/m2 CLR
07:46 14.5 °F 7.6 °F 1025.3 in West 22.2 mph 22.2 mph 63 % 0.0 in 121.0 W/m2 CLR
07:51 14.6 °F 7.4 °F 1025.3 in West 24.1 mph 24.1 mph 62 % 0.0 in 139.0 W/m2 CLR
07:56 14.7 °F 7.5 °F 1024.9 in WNW 18.5 mph 18.5 mph 62 % 0.0 in 153.0 W/m2 CLR
08:01 14.8 °F 7.6 °F 1025.3 in West 22.5 mph 22.5 mph 62 % 0.0 in 169.0 W/m2 CLR
08:06 14.9 °F 7.5 °F 1025.3 in WNW 29.6 mph 29.6 mph 61 % 0.0 in 186.0 W/m2 CLR
08:11 15.0 °F 7.6 °F 1025.3 in West 29.6 mph 29.6 mph 61 % 0.0 in 206.0 W/m2 CLR
08:16 15.2 °F 7.7 °F 1025.3 in NW 25.9 mph 25.9 mph 61 % 0.0 in 221.0 W/m2 CLR
08:21 15.3 °F 7.8 °F 1025.3 in WSW 24.1 mph 24.1 mph 61 % 0.0 in 237.0 W/m2 CLR
08:26 15.4 °F 7.9 °F 1025.3 in West 20.4 mph 20.4 mph 61 % 0.0 in 251.0 W/m2 CLR
08:31 15.5 °F 7.8 °F 1025.3 in WNW 29.6 mph 29.6 mph 60 % 0.0 in 269.0 W/m2 CLR
08:36 15.7 °F 7.9 °F 1025.3 in West 20.4 mph 20.4 mph 60 % 0.0 in 285.0 W/m2 CLR
08:41 15.6 °F 7.9 °F 1025.3 in West 33.3 mph 33.3 mph 60 % 0.0 in 299.0 W/m2 CLR
08:46 15.6 °F 7.8 °F 1025.3 in NW 27.8 mph 27.8 mph 60 % 0.0 in 313.0 W/m2 CLR
08:51 15.8 °F 8.1 °F 1025.3 in WNW 31.5 mph 31.5 mph 60 % 0.0 in 329.0 W/m2 CLR
08:56 16.1 °F 8.1 °F 1025.3 in WNW 18.5 mph 18.5 mph 59 % 0.0 in 346.0 W/m2 CLR
09:01 16.3 °F 8.1 °F 1025.3 in West 31.5 mph 31.5 mph 58 % 0.0 in 362.0 W/m2 CLR
09:06 16.3 °F 8.3 °F 1025.3 in WNW 31.5 mph 31.5 mph 59 % 0.0 in 376.0 W/m2 CLR
09:11 16.2 °F 8.2 °F 1025.3 in NW 31.5 mph 31.5 mph 59 % 0.0 in 390.0 W/m2 CLR
09:16 16.3 °F 8.2 °F 1025.3 in WNW 27.8 mph 27.8 mph 59 % 0.0 in 408.0 W/m2 CLR
09:21 16.6 °F 8.3 °F 1025.3 in West 29.6 mph 29.6 mph 58 % 0.0 in 422.0 W/m2 CLR
09:26 16.8 °F 8.8 °F 1025.3 in West 19.3 mph 19.3 mph 59 % 0.0 in 439.0 W/m2 CLR
09:31 16.7 °F 8.4 °F 1025.3 in West 25.9 mph 25.9 mph 58 % 0.0 in 454.0 W/m2 CLR
09:36 16.8 °F 8.5 °F 1025.3 in NW 25.7 mph 25.7 mph 58 % 0.0 in 475.0 W/m2 CLR
09:41 17.1 °F 8.5 °F 1025.3 in WNW 32.2 mph 32.2 mph 57 % 0.0 in 487.0 W/m2 CLR
09:47 17.1 °F 8.8 °F 1025.3 in West 22.2 mph 22.2 mph 58 % 0.0 in 499.0 W/m2 CLR
09:52 17.2 °F 8.6 °F 1025.3 in West 27.8 mph 27.8 mph 57 % 0.0 in 526.0 W/m2 CLR
09:57 17.5 °F 8.9 °F 1025.3 in West 29.6 mph 29.6 mph 57 % 0.0 in 538.0 W/m2 CLR
10:02 17.3 °F 8.9 °F 1024.9 in NW 24.1 mph 24.1 mph 58 % 0.0 in 573.0 W/m2 CLR
10:07 17.6 °F 9.0 °F 1024.9 in WNW 25.9 mph 25.9 mph 57 % 0.0 in 564.0 W/m2 CLR
10:12 17.9 °F 8.8 °F 1024.9 in NW 27.4 mph 27.4 mph 55 % 0.0 in 577.0 W/m2 CLR
10:17 18.0 °F 8.8 °F 1024.9 in NNW 31.5 mph 31.5 mph 55 % 0.0 in 596.0 W/m2 CLR
10:22 17.9 °F 8.8 °F 1024.9 in West 33.3 mph 33.3 mph 55 % 0.0 in 601.0 W/m2 CLR
10:27 17.9 °F 8.8 °F 1024.9 in WNW 31.5 mph 31.5 mph 55 % 0.0 in 621.0 W/m2 CLR
10:32 18.2 °F 9.0 °F 1024.9 in NNW 27.8 mph 27.8 mph 55 % 0.0 in 633.0 W/m2 CLR
10:37 18.4 °F 9.2 °F 1024.9 in NW 20.4 mph 20.4 mph 55 % 0.0 in 643.0 W/m2 CLR
10:42 18.8 °F 9.1 °F 1024.9 in WNW 31.5 mph 31.5 mph 53 % 0.0 in 657.0 W/m2 CLR
10:47 18.8 °F 9.0 °F 1024.9 in NNW 27.8 mph 27.8 mph 53 % 0.0 in 670.0 W/m2 CLR
10:52 18.9 °F 9.2 °F 1024.9 in NW 27.8 mph 27.8 mph 53 % 0.0 in 682.0 W/m2 CLR
10:58 19.0 °F 9.2 °F 1024.9 in NW 33.8 mph 33.8 mph 53 % 0.0 in 694.0 W/m2 CLR
11:02 19.0 °F 8.9 °F 1024.9 in WNW 24.1 mph 24.8 mph 52 % 0.0 in 707.0 W/m2 CLR
11:07 19.2 °F 9.1 °F 1024.9 in West 31.5 mph 31.5 mph 52 % 0.0 in 717.0 W/m2 CLR
11:12 19.2 °F 9.1 °F 1024.9 in NW 24.1 mph 24.1 mph 52 % 0.0 in 731.0 W/m2 CLR
11:17 19.6 °F 9.5 °F 1024.9 in NW 18.5 mph 18.5 mph 52 % 0.0 in 740.0 W/m2 CLR
11:23 20.0 °F 9.6 °F 1024.6 in West 25.7 mph 25.7 mph 51 % 0.0 in 752.0 W/m2 CLR
11:28 19.9 °F 9.4 °F 1024.9 in West 29.6 mph 29.6 mph 51 % 0.0 in 763.0 W/m2 CLR
11:33 20.1 °F 9.1 °F 1024.9 in WNW 24.1 mph 24.1 mph 49 % 0.0 in 775.0 W/m2 CLR
11:38 20.0 °F 9.3 °F 1024.9 in NNW 24.1 mph 24.1 mph 50 % 0.0 in 786.0 W/m2 CLR
11:43 20.2 °F 9.2 °F 1024.9 in WNW 31.5 mph 31.5 mph 49 % 0.0 in 796.0 W/m2 CLR
11:48 20.3 °F 9.2 °F 1024.9 in WNW 18.5 mph 18.5 mph 49 % 0.0 in 803.0 W/m2 CLR
11:53 20.2 °F 9.2 °F 1024.6 in West 24.1 mph 24.1 mph 49 % 0.0 in 814.0 W/m2 CLR
11:58 19.9 °F 8.9 °F 1024.6 in NW 18.5 mph 18.5 mph 49 % 0.0 in 823.0 W/m2 CLR
12:03 20.2 °F 9.2 °F 1024.6 in West 20.4 mph 20.4 mph 49 % 0.0 in 831.0 W/m2 CLR
12:08 20.7 °F 9.6 °F 1024.6 in WNW 25.9 mph 25.9 mph 49 % 0.0 in 837.0 W/m2 CLR
12:13 21.2 °F 9.4 °F 1024.6 in NNW 25.9 mph 25.9 mph 47 % 0.0 in 849.0 W/m2 CLR
12:18 21.3 °F 9.5 °F 1024.6 in West 24.1 mph 24.1 mph 47 % 0.0 in 858.0 W/m2 CLR
12:23 21.3 °F 9.6 °F 1024.6 in NW 22.2 mph 22.2 mph 47 % 0.0 in 865.0 W/m2 CLR
12:28 21.5 °F 9.4 °F 1024.6 in WNW 29.6 mph 29.6 mph 46 % 0.0 in 872.0 W/m2 CLR
12:33 21.6 °F 9.4 °F 1024.6 in WNW 29.0 mph 29.0 mph 46 % 0.0 in 881.0 W/m2 CLR
12:38 21.8 °F 9.3 °F 1024.6 in WNW 22.5 mph 22.5 mph 45 % 0.0 in 886.0 W/m2 CLR
12:43 21.5 °F 9.4 °F 1024.3 in WNW 25.9 mph 25.9 mph 46 % 0.0 in 891.0 W/m2 CLR
12:48 21.7 °F 9.3 °F 1024.3 in NNW 16.7 mph 16.7 mph 45 % 0.0 in 896.0 W/m2 CLR
12:49 21.8 °F 9.7 °F 1024.3 in NNW 24.1 mph 24.1 mph 46 % 0.0 in 896.0 W/m2 CLR
12:54 22.1 °F 9.6 °F 1024.3 in North 25.9 mph 25.9 mph 45 % 0.0 in 902.0 W/m2 CLR
12:59 22.2 °F 9.7 °F 1024.3 in NNW 22.2 mph 22.2 mph 45 % 0.0 in 909.0 W/m2 CLR
13:04 22.5 °F 9.6 °F 1024.3 in NW 24.1 mph 24.1 mph 44 % 0.0 in 916.0 W/m2 CLR
13:09 22.6 °F 9.7 °F 1024.3 in West 31.5 mph 31.5 mph 44 % 0.0 in 919.0 W/m2 CLR
13:14 22.6 °F 9.7 °F 1024.3 in West 20.4 mph 20.4 mph 44 % 0.0 in 923.0 W/m2 CLR
13:19 22.4 °F 9.9 °F 1024.3 in NW 22.5 mph 22.5 mph 45 % 0.0 in 926.0 W/m2 CLR
13:24 22.8 °F 9.9 °F 1024.3 in WNW 14.8 mph 14.8 mph 44 % 0.0 in 930.0 W/m2 CLR
13:29 23.2 °F 9.6 °F 1024.3 in North 22.2 mph 22.2 mph 42 % 0.0 in 932.0 W/m2 CLR
13:34 23.3 °F 9.7 °F 1024.3 in WNW 22.5 mph 22.5 mph 42 % 0.0 in 935.0 W/m2 CLR
13:39 23.2 °F 9.9 °F 1023.9 in NNW 16.7 mph 16.7 mph 43 % 0.0 in 937.0 W/m2 CLR
13:44 23.7 °F 9.7 °F 1023.9 in NNW 25.9 mph 25.9 mph 41 % 0.0 in 939.0 W/m2 CLR
13:49 23.8 °F 9.7 °F 1023.9 in NNW 22.2 mph 22.2 mph 41 % 0.0 in 942.0 W/m2 CLR
13:54 23.9 °F 9.4 °F 1023.9 in NW 20.9 mph 20.9 mph 40 % 0.0 in 942.0 W/m2 CLR
13:59 23.6 °F 9.6 °F 1023.9 in WNW 18.5 mph 18.5 mph 41 % 0.0 in 942.0 W/m2 CLR
14:04 23.7 °F 9.6 °F 1023.9 in WNW 22.5 mph 22.5 mph 41 % 0.0 in 940.0 W/m2 CLR
14:09 23.9 °F 9.5 °F 1023.6 in WNW 22.2 mph 22.2 mph 40 % 0.0 in 942.0 W/m2 CLR
14:14 23.9 °F 9.5 °F 1023.6 in WNW 25.9 mph 25.9 mph 40 % 0.0 in 942.0 W/m2 CLR
14:19 24.1 °F 9.6 °F 1023.6 in WNW 22.2 mph 22.2 mph 40 % 0.0 in 944.0 W/m2 CLR
14:24 24.2 °F 9.8 °F 1023.6 in NW 29.6 mph 29.6 mph 40 % 0.0 in 940.0 W/m2 CLR
14:29 24.3 °F 9.5 °F 1023.6 in NNW 18.5 mph 18.5 mph 39 % 0.0 in 939.0 W/m2 CLR
14:34 24.7 °F 9.8 °F 1023.6 in NW 25.9 mph 25.9 mph 39 % 0.0 in 935.0 W/m2 CLR
14:39 24.6 °F 9.7 °F 1023.6 in NNW 18.5 mph 18.5 mph 39 % 0.0 in 933.0 W/m2 CLR
14:44 24.7 °F 9.8 °F 1023.2 in West 22.2 mph 22.2 mph 39 % 0.0 in 932.0 W/m2 CLR
14:49 24.6 °F 9.7 °F 1023.2 in NW 16.1 mph 16.1 mph 39 % 0.0 in 928.0 W/m2 CLR
14:54 24.8 °F 9.9 °F 1023.2 in NW 29.6 mph 29.6 mph 39 % 0.0 in 923.0 W/m2 CLR
14:59 24.9 °F 10.0 °F 1023.2 in WNW 12.9 mph 12.9 mph 39 % 0.0 in 918.0 W/m2 CLR
15:04 24.9 °F 9.7 °F 1023.2 in NW 29.6 mph 29.6 mph 38 % 0.0 in 919.0 W/m2 CLR
15:09 24.9 °F 9.6 °F 1022.9 in NW 27.8 mph 27.8 mph 38 % 0.0 in 911.0 W/m2 CLR
15:10 24.9 °F 9.6 °F 1022.9 in NW 27.8 mph 27.8 mph 38 % 0.0 in 911.0 W/m2 CLR
15:15 25.1 °F 9.0 °F 1022.9 in NW 16.7 mph 16.7 mph 36 % 0.0 in 905.0 W/m2 CLR
15:20 25.0 °F 9.7 °F 1022.9 in NW 13.0 mph 13.0 mph 38 % 0.0 in 900.0 W/m2 CLR
15:25 25.3 °F 9.6 °F 1022.9 in North 22.2 mph 22.2 mph 37 % 0.0 in 895.0 W/m2 CLR
15:30 25.5 °F 9.7 °F 1022.6 in NW 20.4 mph 20.4 mph 37 % 0.0 in 891.0 W/m2 CLR
15:35 25.5 °F 9.7 °F 1022.6 in WNW 3.7 mph   37 % 0.0 in 881.0 W/m2 CLR
15:40 25.7 °F 9.9 °F 1022.6 in North 22.2 mph 22.2 mph 37 % 0.0 in 875.0 W/m2 CLR
15:45 25.7 °F 9.9 °F 1022.6 in WNW 18.5 mph 18.5 mph 37 % 0.0 in 868.0 W/m2 CLR
15:50 25.7 °F 9.9 °F 1022.6 in NW 18.5 mph 18.5 mph 37 % 0.0 in 860.0 W/m2 CLR
15:55 25.8 °F 10.1 °F 1022.2 in WNW 19.3 mph 19.3 mph 37 % 0.0 in 853.0 W/m2 CLR
16:00 26.2 °F 9.9 °F 1022.2 in NNW 24.1 mph 24.1 mph 36 % 0.0 in 847.0 W/m2 CLR
16:05 26.2 °F 9.9 °F 1022.2 in WNW 20.4 mph 20.4 mph 36 % 0.0 in 837.0 W/m2 CLR
16:10 26.0 °F 9.8 °F 1022.2 in NW 18.5 mph 18.5 mph 36 % 0.0 in 826.0 W/m2 CLR
16:15 26.2 °F 9.9 °F 1022.2 in West 20.4 mph 20.4 mph 36 % 0.0 in 819.0 W/m2 CLR
16:20 26.1 °F 9.8 °F 1022.2 in NNW 25.9 mph 25.9 mph 36 % 0.0 in 812.0 W/m2 CLR
16:25 25.9 °F 9.7 °F 1022.2 in NNW 20.4 mph 20.4 mph 36 % 0.0 in 800.0 W/m2 CLR
16:30 26.2 °F 9.9 °F 1021.9 in WNW 18.5 mph 18.5 mph 36 % 0.0 in 788.0 W/m2 CLR
16:35 26.4 °F 9.7 °F 1021.9 in NW 22.2 mph 22.2 mph 35 % 0.0 in 780.0 W/m2 CLR
16:40 26.6 °F 9.9 °F 1021.9 in West 25.9 mph 25.9 mph 35 % 0.0 in 768.0 W/m2 CLR
16:45 26.7 °F 10.0 °F 1021.9 in WNW 16.7 mph 16.7 mph 35 % 0.0 in 761.0 W/m2 CLR
16:50 26.8 °F 10.1 °F 1021.9 in NW 9.3 mph 9.3 mph 35 % 0.0 in 749.0 W/m2 CLR
16:55 26.8 °F 10.1 °F 1021.6 in NW 22.2 mph 22.2 mph 35 % 0.0 in 738.0 W/m2 CLR
17:00 26.8 °F 10.1 °F 1021.6 in WNW 18.5 mph 18.5 mph 35 % 0.0 in 728.0 W/m2 CLR
17:05 26.8 °F 10.1 °F 1021.6 in WSW 1.9 mph 1.9 mph 35 % 0.0 in 717.0 W/m2 CLR
17:10 27.0 °F 10.2 °F 1021.6 in NNW 18.5 mph 18.5 mph 35 % 0.0 in 703.0 W/m2 CLR
17:15 27.1 °F 9.9 °F 1021.6 in West 18.5 mph 18.5 mph 34 % 0.0 in 693.0 W/m2 CLR
17:20 27.1 °F 9.8 °F 1021.6 in WNW 25.9 mph 25.9 mph 34 % 0.0 in 679.0 W/m2 CLR
17:25 27.1 °F 10.3 °F 1021.6 in NNE 16.7 mph 16.7 mph 35 % 0.0 in 668.0 W/m2 CLR
17:30 27.3 °F 10.1 °F 1021.6 in NW 24.1 mph 24.1 mph 34 % 0.0 in 654.0 W/m2 CLR
17:35 27.2 °F 10.0 °F 1021.2 in West 24.1 mph 24.1 mph 34 % 0.0 in 642.0 W/m2 CLR
17:40 26.9 °F 10.2 °F 1021.2 in WNW 11.1 mph 11.1 mph 35 % 0.0 in 628.0 W/m2 CLR
17:45 27.1 °F 10.3 °F 1021.2 in WNW 24.1 mph 24.1 mph 35 % 0.0 in 613.0 W/m2 CLR
17:50 27.2 °F 10.4 °F 1021.2 in North 20.4 mph 20.4 mph 35 % 0.0 in 598.0 W/m2 CLR
17:55 27.4 °F 10.6 °F 1021.2 in NW 13.0 mph 13.0 mph 35 % 0.0 in 584.0 W/m2 CLR
18:00 27.6 °F 10.3 °F 1021.2 in WNW 13.0 mph 13.0 mph 34 % 0.0 in 570.0 W/m2 CLR
18:05 27.6 °F 10.3 °F 1021.2 in WNW 11.1 mph 11.1 mph 34 % 0.0 in 559.0 W/m2 CLR
18:10 27.5 °F 10.2 °F 1020.9 in NW 19.3 mph 19.3 mph 34 % 0.0 in 545.0 W/m2 CLR
18:15 27.4 °F 10.1 °F 1020.9 in NNE 5.6 mph 5.6 mph 34 % 0.0 in 527.0 W/m2 CLR
18:20 27.6 °F 10.3 °F 1020.9 in North 11.1 mph 11.1 mph 34 % 0.0 in 513.0 W/m2 CLR
18:25 27.7 °F 10.4 °F 1020.9 in NNW 22.2 mph 22.2 mph 34 % 0.0 in 499.0 W/m2 CLR
18:30 27.7 °F 10.4 °F 1020.9 in NW 13.0 mph 13.0 mph 34 % 0.0 in 483.0 W/m2 CLR
18:35 27.9 °F 10.6 °F 1020.9 in NNW 14.5 mph 14.5 mph 34 % 0.0 in 466.0 W/m2 CLR
18:40 27.6 °F 10.3 °F 1020.9 in North 20.4 mph 20.4 mph 34 % 0.0 in 452.0 W/m2 CLR
18:45 27.6 °F 10.3 °F 1020.9 in NNW 12.9 mph 12.9 mph 34 % 0.0 in 438.0 W/m2 CLR
18:50 27.8 °F 10.5 °F 1020.5 in NW 3.7 mph 3.7 mph 34 % 0.0 in 424.0 W/m2 CLR
18:55 28.1 °F 10.3 °F 1020.5 in Calm   0.3 mph 33 % 0.0 in 408.0 W/m2 CLR
19:00 27.9 °F 10.6 °F 1020.9 in NW 24.1 mph 24.1 mph 34 % 0.0 in 390.0 W/m2 CLR
19:05 27.7 °F 10.4 °F 1020.9 in NNW 14.5 mph 14.5 mph 34 % 0.0 in 374.0 W/m2 CLR
19:10 27.6 °F 10.3 °F 1020.9 in NNW 18.5 mph 18.5 mph 34 % 0.0 in 360.0 W/m2 CLR
19:15 27.6 °F 10.3 °F 1020.5 in NNW 24.1 mph 24.1 mph 34 % 0.0 in 346.0 W/m2 CLR
19:20 27.3 °F 10.5 °F 1020.9 in NW 22.2 mph 22.2 mph 35 % 0.0 in 327.0 W/m2 CLR
19:25 27.3 °F 10.5 °F 1020.9 in NW 20.4 mph 20.4 mph 35 % 0.0 in 313.0 W/m2 CLR
19:30 27.4 °F 10.6 °F 1020.9 in NW 6.4 mph 6.4 mph 35 % 0.0 in 299.0 W/m2 CLR
19:35 27.3 °F 10.1 °F 1020.9 in NW 18.5 mph 18.5 mph 34 % 0.0 in 283.0 W/m2 CLR
19:40 27.3 °F 10.5 °F 1020.9 in West 19.3 mph 19.3 mph 35 % 0.0 in 265.0 W/m2 CLR
19:45 27.2 °F 10.4 °F 1020.5 in NNW 20.9 mph 20.9 mph 35 % 0.0 in 251.0 W/m2 CLR
19:50 27.3 °F 10.5 °F 1020.5 in NW 18.5 mph 18.5 mph 35 % 0.0 in 237.0 W/m2 CLR
19:55 27.4 °F 10.1 °F 1020.5 in WNW 16.7 mph 16.7 mph 34 % 0.0 in 221.0 W/m2 CLR
20:00 27.2 °F 10.0 °F 1020.9 in WNW 18.5 mph 18.5 mph 34 % 0.0 in 200.0 W/m2 CLR
20:05 27.2 °F 9.9 °F 1020.9 in NNW 17.7 mph 17.7 mph 34 % 0.0 in 185.0 W/m2 CLR
20:10 27.1 °F 9.9 °F 1020.9 in WNW 6.4 mph 6.4 mph 34 % 0.0 in 167.0 W/m2 CLR
20:15 27.2 °F 9.9 °F 1020.9 in NNW 4.8 mph 4.8 mph 34 % 0.0 in 151.0 W/m2 CLR
20:20 27.1 °F 9.9 °F 1020.9 in WNW 18.5 mph 18.5 mph 34 % 0.0 in 135.0 W/m2 CLR
20:25 27.0 °F 9.8 °F 1020.9 in NNW 16.7 mph 16.7 mph 34 % 0.0 in 116.0 W/m2 CLR
20:30 26.9 °F 10.1 °F 1020.9 in WNW 18.5 mph 18.5 mph 35 % 0.0 in 100.0 W/m2 CLR
20:35 26.8 °F 10.1 °F 1020.9 in NNW 3.7 mph 3.7 mph 35 % 0.0 in 86.0 W/m2 CLR
20:40 26.6 °F 9.9 °F 1020.9 in NW 18.5 mph 18.5 mph 35 % 0.0 in 74.0 W/m2 FEW
20:45 26.5 °F 9.8 °F 1020.9 in NNW 14.5 mph 14.5 mph 35 % 0.0 in 60.0 W/m2 SCT
20:50 26.4 °F 9.7 °F 1020.9 in NNW 11.1 mph 11.1 mph 35 % 0.0 in 19.0 W/m2 BKN
20:55 26.4 °F 9.7 °F 1020.9 in NNW 3.7 mph 3.7 mph 35 % 0.0 in 35.0 W/m2 BKN
21:00 26.3 °F 9.6 °F 1020.9 in NW 11.1 mph 11.1 mph 35 % 0.0 in 26.0 W/m2 BKN
21:05 26.2 °F 9.5 °F 1021.2 in NW 11.1 mph 11.1 mph 35 % 0.0 in 19.0 W/m2 BKN
21:10 26.0 °F 9.8 °F 1021.2 in WNW 3.7 mph 3.7 mph 36 % 0.0 in 12.0 W/m2 BKN
21:15 25.7 °F 9.5 °F 1021.2 in NW 5.6 mph 5.6 mph 36 % 0.0 in 12.0 W/m2 BKN
21:20 25.5 °F 9.3 °F 1021.2 in NW 3.7 mph 3.7 mph 36 % 0.0 in 11.0 W/m2 BKN
21:25 25.3 °F 9.6 °F 1021.2 in WNW 5.6 mph 5.6 mph 37 % 0.0 in 9.0 W/m2 BKN
21:30 25.1 °F 9.4 °F 1021.2 in NW 5.6 mph 5.6 mph 37 % 0.0 in 5.0 W/m2 BKN
21:35 24.9 °F 9.2 °F 1021.2 in Calm     37 % 0.0 in 5.0 W/m2 OVC
21:40 24.7 °F 9.4 °F 1021.2 in NW 5.6 mph 5.6 mph 38 % 0.0 in 0.0 W/m2 OVC
21:46 24.5 °F 9.2 °F 1021.2 in Calm     38 % 0.0 in 0.0 W/m2 OVC
21:50 24.3 °F 9.5 °F 1021.2 in Calm     39 % 0.0 in 0.0 W/m2 CLR
21:56 24.1 °F 9.3 °F 1021.6 in Calm     39 % 0.0 in 0.0 W/m2 CLR
22:01 23.7 °F 9.3 °F 1021.6 in Calm     40 % 0.0 in 0.0 W/m2 CLR
22:06 23.4 °F 9.1 °F 1021.6 in Calm     40 % 0.0 in 0.0 W/m2 CLR
22:11 23.3 °F 9.3 °F 1021.6 in Calm     41 % 0.0 in 0.0 W/m2 CLR
22:16 23.2 °F 9.2 °F 1021.6 in Calm     41 % 0.0 in 0.0 W/m2 CLR
22:21 23.1 °F 9.1 °F 1021.6 in Calm     41 % 0.0 in 0.0 W/m2 CLR
22:26 22.9 °F 9.3 °F 1021.9 in Calm     42 % 0.0 in 0.0 W/m2 CLR
22:31 22.8 °F 9.2 °F 1021.9 in WNW 7.4 mph 7.4 mph 42 % 0.0 in 0.0 W/m2 CLR
22:32 22.9 °F 9.3 °F 1021.9 in WNW 7.4 mph 7.4 mph 42 % 0.0 in 0.0 W/m2 CLR
22:37 22.9 °F 9.3 °F 1021.9 in WNW 5.6 mph 5.6 mph 42 % 0.0 in 0.0 W/m2 CLR
22:42 22.9 °F 9.3 °F 1021.9 in WNW 5.6 mph 5.6 mph 42 % 0.0 in 0.0 W/m2 CLR
22:47 22.8 °F 9.2 °F 1021.9 in WNW 3.7 mph   42 % 0.0 in 0.0 W/m2 CLR
22:52 22.7 °F 9.2 °F 1022.2 in Calm     42 % 0.0 in 0.0 W/m2 CLR
22:57 22.7 °F 9.1 °F 1022.2 in WNW 16.7 mph 16.7 mph 42 % 0.0 in 0.0 W/m2 CLR
23:02 22.7 °F 9.1 °F 1022.2 in NW 5.6 mph 5.6 mph 42 % 0.0 in 0.0 W/m2 CLR
23:07 22.6 °F 9.4 °F 1022.2 in West 13.0 mph 13.0 mph 43 % 0.0 in 0.0 W/m2 CLR
23:12 22.7 °F 9.1 °F 1022.2 in WNW 11.3 mph 11.3 mph 42 % 0.0 in 0.0 W/m2 CLR
23:17 22.6 °F 9.4 °F 1022.2 in WNW 7.4 mph 7.4 mph 43 % 0.0 in 0.0 W/m2 CLR
23:22 22.6 °F 9.3 °F 1022.2 in WNW 5.6 mph 5.6 mph 43 % 0.0 in 0.0 W/m2 CLR
23:27 22.4 °F 9.2 °F 1022.6 in West 4.8 mph 4.8 mph 43 % 0.0 in 0.0 W/m2 CLR
23:32 22.3 °F 9.4 °F 1022.6 in West 7.4 mph 7.4 mph 44 % 0.0 in 0.0 W/m2 CLR
23:38 22.2 °F 9.4 °F 1022.6 in WNW 9.3 mph 9.3 mph 44 % 0.0 in 0.0 W/m2 CLR
23:43 22.1 °F 9.3 °F 1022.6 in West 7.4 mph 7.4 mph 44 % 0.0 in 0.0 W/m2 CLR
23:48 22.0 °F 9.5 °F 1022.6 in Calm     45 % 0.0 in 0.0 W/m2 CLR
23:53 21.8 °F 9.7 °F 1022.6 in West 3.7 mph 3.7 mph 46 % 0.0 in 0.0 W/m2 CLR
23:58 21.8 °F 9.7 °F 1022.6 in Calm     46 % 0.0 in 0.0 W/m2 CLR
Lo Temps de Massalio
Compliments of Weather Underground - 1.25 mb